sensor_id;sensor_type;location;lat;lon;timestamp;pressure;altitude;pressure_sealevel;temperature;humidity
39265;BME280;42646;51.910;7.724;2024-02-15T00:01:31;101049.97;;;12.37;100.00
39265;BME280;42646;51.910;7.724;2024-02-15T00:03:58;101055.44;;;12.35;100.00
39265;BME280;42646;51.910;7.724;2024-02-15T00:06:44;101058.13;;;12.35;100.00
39265;BME280;42646;51.910;7.724;2024-02-15T00:09:14;101067.94;;;12.35;100.00
39265;BME280;42646;51.910;7.724;2024-02-15T00:11:42;101065.00;;;12.38;100.00
39265;BME280;42646;51.910;7.724;2024-02-15T00:14:10;101068.66;;;12.37;100.00
39265;BME280;42646;51.910;7.724;2024-02-15T00:16:38;101065.97;;;12.37;100.00
39265;BME280;42646;51.910;7.724;2024-02-15T00:19:06;101068.66;;;12.37;100.00
39265;BME280;42646;51.910;7.724;2024-02-15T00:21:34;101066.97;;;12.36;100.00
39265;BME280;42646;51.910;7.724;2024-02-15T00:24:03;101067.81;;;12.36;100.00
39265;BME280;42646;51.910;7.724;2024-02-15T00:26:32;101066.81;;;12.37;100.00
39265;BME280;42646;51.910;7.724;2024-02-15T00:29:00;101073.00;;;12.38;100.00
39265;BME280;42646;51.910;7.724;2024-02-15T00:31:28;101064.00;;;12.39;100.00
39265;BME280;42646;51.910;7.724;2024-02-15T00:33:55;101063.16;;;12.38;100.00
39265;BME280;42646;51.910;7.724;2024-02-15T00:36:24;101065.81;;;12.38;100.00
39265;BME280;42646;51.910;7.724;2024-02-15T00:38:52;101063.16;;;12.38;100.00
39265;BME280;42646;51.910;7.724;2024-02-15T00:41:20;101063.16;;;12.38;100.00
39265;BME280;42646;51.910;7.724;2024-02-15T00:43:49;101071.31;;;12.37;100.00
39265;BME280;42646;51.910;7.724;2024-02-15T00:46:17;101072.88;;;12.39;100.00
39265;BME280;42646;51.910;7.724;2024-02-15T00:48:45;101072.00;;;12.39;100.00
39265;BME280;42646;51.910;7.724;2024-02-15T00:51:14;101069.47;;;12.37;100.00
39265;BME280;42646;51.910;7.724;2024-02-15T00:53:41;101065.81;;;12.38;100.00
39265;BME280;42646;51.910;7.724;2024-02-15T00:56:09;101073.84;;;12.38;100.00
39265;BME280;42646;51.910;7.724;2024-02-15T00:58:38;101067.53;;;12.39;100.00
39265;BME280;42646;51.910;7.724;2024-02-15T01:01:07;101063.88;;;12.40;100.00
39265;BME280;42646;51.910;7.724;2024-02-15T01:03:35;101064.88;;;12.39;100.00
39265;BME280;42646;51.910;7.724;2024-02-15T01:06:03;101062.31;;;12.38;100.00
39265;BME280;42646;51.910;7.724;2024-02-15T01:08:32;101066.81;;;12.37;100.00
39265;BME280;42646;51.910;7.724;2024-02-15T01:11:00;101072.00;;;12.39;100.00
39265;BME280;42646;51.910;7.724;2024-02-15T01:13:27;101065.81;;;12.38;100.00
39265;BME280;42646;51.910;7.724;2024-02-15T01:15:56;101076.25;;;12.41;100.00
39265;BME280;42646;51.910;7.724;2024-02-15T01:18:25;101074.56;;;12.40;100.00
39265;BME280;42646;51.910;7.724;2024-02-15T01:20:53;101079.06;;;12.40;100.00
39265;BME280;42646;51.910;7.724;2024-02-15T01:23:21;101078.34;;;12.38;100.00
39265;BME280;42646;51.910;7.724;2024-02-15T01:25:50;101074.81;;;12.37;100.00
39265;BME280;42646;51.910;7.724;2024-02-15T01:28:17;101078.22;;;12.39;100.00
39265;BME280;42646;51.910;7.724;2024-02-15T01:30:46;101066.66;;;12.39;100.00
39265;BME280;42646;51.910;7.724;2024-02-15T01:33:13;101075.53;;;12.39;100.00
39265;BME280;42646;51.910;7.724;2024-02-15T01:35:43;101077.06;;;12.42;100.00
39265;BME280;42646;51.910;7.724;2024-02-15T01:38:11;101073.00;;;12.38;100.00
39265;BME280;42646;51.910;7.724;2024-02-15T01:40:39;101076.50;;;12.38;100.00
39265;BME280;42646;51.910;7.724;2024-02-15T01:43:07;101079.16;;;12.38;100.00
39265;BME280;42646;51.910;7.724;2024-02-15T01:45:35;101081.00;;;12.38;100.00
39265;BME280;42646;51.910;7.724;2024-02-15T01:48:03;101081.84;;;12.38;100.00
39265;BME280;42646;51.910;7.724;2024-02-15T01:50:32;101071.06;;;12.40;100.00
39265;BME280;42646;51.910;7.724;2024-02-15T01:53:04;101074.56;;;12.40;100.00
39265;BME280;42646;51.910;7.724;2024-02-15T01:55:32;101080.72;;;12.41;100.00
39265;BME280;42646;51.910;7.724;2024-02-15T01:58:01;101081.28;;;12.44;100.00
39265;BME280;42646;51.910;7.724;2024-02-15T02:00:30;101073.56;;;12.41;100.00
39265;BME280;42646;51.910;7.724;2024-02-15T02:02:58;101066.41;;;12.42;100.00
39265;BME280;42646;51.910;7.724;2024-02-15T02:05:30;101072.88;;;12.39;100.00
39265;BME280;42646;51.910;7.724;2024-02-15T02:07:58;101070.22;;;12.39;100.00
39265;BME280;42646;51.910;7.724;2024-02-15T02:10:32;101065.41;;;12.43;100.00
39265;BME280;42646;51.910;7.724;2024-02-15T02:13:00;101067.25;;;12.42;100.00
39265;BME280;42646;51.910;7.724;2024-02-15T02:15:31;101065.72;;;12.40;100.00
39265;BME280;42646;51.910;7.724;2024-02-15T02:18:00;101063.88;;;12.40;100.00
39265;BME280;42646;51.910;7.724;2024-02-15T02:20:28;101062.06;;;12.41;100.00
39265;BME280;42646;51.910;7.724;2024-02-15T02:23:02;101062.19;;;12.39;100.00
39265;BME280;42646;51.910;7.724;2024-02-15T02:25:35;101056.88;;;12.39;100.00
39265;BME280;42646;51.910;7.724;2024-02-15T02:28:03;101056.00;;;12.39;100.00
39265;BME280;42646;51.910;7.724;2024-02-15T02:30:31;101050.66;;;12.39;100.00
39265;BME280;42646;51.910;7.724;2024-02-15T02:32:59;101050.53;;;12.40;100.00
39265;BME280;42646;51.910;7.724;2024-02-15T02:35:28;101059.53;;;12.39;100.00
39265;BME280;42646;51.910;7.724;2024-02-15T02:37:56;101050.81;;;12.37;100.00
39265;BME280;42646;51.910;7.724;2024-02-15T02:40:24;101045.63;;;12.36;100.00
39265;BME280;42646;51.910;7.724;2024-02-15T02:42:54;101052.63;;;12.37;100.00
39265;BME280;42646;51.910;7.724;2024-02-15T02:45:23;101058.97;;;12.36;100.00
39265;BME280;42646;51.910;7.724;2024-02-15T02:47:52;101048.28;;;12.36;100.00
39265;BME280;42646;51.910;7.724;2024-02-15T02:50:21;101044.78;;;12.35;100.00
39265;BME280;42646;51.910;7.724;2024-02-15T02:52:50;101046.47;;;12.36;100.00
39265;BME280;42646;51.910;7.724;2024-02-15T02:55:18;101054.47;;;12.36;100.00
39265;BME280;42646;51.910;7.724;2024-02-15T02:57:47;101050.13;;;12.35;100.00
39265;BME280;42646;51.910;7.724;2024-02-15T03:00:17;101049.97;;;12.37;100.00
39265;BME280;42646;51.910;7.724;2024-02-15T03:02:46;101048.13;;;12.37;100.00
39265;BME280;42646;51.910;7.724;2024-02-15T03:05:15;101041.97;;;12.37;100.00
39265;BME280;42646;51.910;7.724;2024-02-15T03:07:42;101041.97;;;12.37;100.00
39265;BME280;42646;51.910;7.724;2024-02-15T03:10:11;101040.97;;;12.38;100.00
39265;BME280;42646;51.910;7.724;2024-02-15T03:12:41;101041.81;;;12.38;100.00
39265;BME280;42646;51.910;7.724;2024-02-15T03:15:16;101037.31;;;12.39;100.00
39265;BME280;42646;51.910;7.724;2024-02-15T03:17:47;101038.19;;;12.39;100.00
39265;BME280;42646;51.910;7.724;2024-02-15T03:20:15;101040.00;;;12.39;100.00
39265;BME280;42646;51.910;7.724;2024-02-15T03:22:53;101038.31;;;12.38;100.00
39265;BME280;42646;51.910;7.724;2024-02-15T03:25:21;101048.88;;;12.39;100.00
39265;BME280;42646;51.910;7.724;2024-02-15T03:27:50;101041.81;;;12.38;100.00
39265;BME280;42646;51.910;7.724;2024-02-15T03:30:21;101038.19;;;12.39;100.00
39265;BME280;42646;51.910;7.724;2024-02-15T03:32:50;101039.16;;;12.38;100.00
39265;BME280;42646;51.910;7.724;2024-02-15T03:35:20;101037.47;;;12.37;100.00
39265;BME280;42646;51.910;7.724;2024-02-15T03:37:49;101039.44;;;12.35;100.00
39265;BME280;42646;51.910;7.724;2024-02-15T03:40:18;101034.81;;;12.37;100.00
39265;BME280;42646;51.910;7.724;2024-02-15T03:42:47;101031.28;;;12.37;100.00
39265;BME280;42646;51.910;7.724;2024-02-15T03:45:17;101030.31;;;12.38;100.00
39265;BME280;42646;51.910;7.724;2024-02-15T03:47:46;101034.94;;;12.36;100.00
39265;BME280;42646;51.910;7.724;2024-02-15T03:50:14;101031.28;;;12.37;100.00
39265;BME280;42646;51.910;7.724;2024-02-15T03:52:42;101036.63;;;12.37;100.00
39265;BME280;42646;51.910;7.724;2024-02-15T03:55:11;101041.13;;;12.36;100.00
39265;BME280;42646;51.910;7.724;2024-02-15T03:57:39;101030.44;;;12.36;100.00
39265;BME280;42646;51.910;7.724;2024-02-15T04:00:08;101029.75;;;12.34;100.00
39265;BME280;42646;51.910;7.724;2024-02-15T04:02:38;101032.44;;;12.34;100.00
39265;BME280;42646;51.910;7.724;2024-02-15T04:05:09;101038.72;;;12.33;100.00
39265;BME280;42646;51.910;7.724;2024-02-15T04:07:39;101038.72;;;12.33;100.00
39265;BME280;42646;51.910;7.724;2024-02-15T04:10:07;101034.25;;;12.34;100.00
39265;BME280;42646;51.910;7.724;2024-02-15T04:12:36;101046.72;;;12.33;100.00
39265;BME280;42646;51.910;7.724;2024-02-15T04:15:04;101041.38;;;12.33;100.00
39265;BME280;42646;51.910;7.724;2024-02-15T04:17:39;101045.03;;;12.32;100.00
39265;BME280;42646;51.910;7.724;2024-02-15T04:20:10;101039.72;;;12.32;100.00
39265;BME280;42646;51.910;7.724;2024-02-15T04:22:39;101042.53;;;12.30;100.00
39265;BME280;42646;51.910;7.724;2024-02-15T04:25:09;101045.19;;;12.30;100.00
39265;BME280;42646;51.910;7.724;2024-02-15T04:27:44;101043.50;;;12.29;100.00
39265;BME280;42646;51.910;7.724;2024-02-15T04:30:12;101036.34;;;12.30;100.00
39265;BME280;42646;51.910;7.724;2024-02-15T04:32:42;101042.69;;;12.29;100.00
39265;BME280;42646;51.910;7.724;2024-02-15T04:35:11;101035.50;;;12.29;100.00
39265;BME280;42646;51.910;7.724;2024-02-15T04:37:40;101035.78;;;12.26;100.00
39265;BME280;42646;51.910;7.724;2024-02-15T04:40:08;101035.09;;;12.24;100.00
39265;BME280;42646;51.910;7.724;2024-02-15T04:42:38;101038.00;;;12.21;100.00
39265;BME280;42646;51.910;7.724;2024-02-15T04:45:07;101032.69;;;12.21;100.00
39265;BME280;42646;51.910;7.724;2024-02-15T04:47:36;101030.88;;;12.22;100.00
39265;BME280;42646;51.910;7.724;2024-02-15T04:50:06;101028.47;;;12.19;100.00
39265;BME280;42646;51.910;7.724;2024-02-15T04:52:37;101024.28;;;12.16;100.00
39265;BME280;42646;51.910;7.724;2024-02-15T04:55:05;101027.78;;;12.17;100.00
39265;BME280;42646;51.910;7.724;2024-02-15T04:57:32;101024.41;;;12.15;100.00
39265;BME280;42646;51.910;7.724;2024-02-15T05:00:04;101022.72;;;12.14;100.00
39265;BME280;42646;51.910;7.724;2024-02-15T05:02:37;101020.06;;;12.14;100.00
39265;BME280;42646;51.910;7.724;2024-02-15T05:05:07;101015.84;;;12.11;100.00
39265;BME280;42646;51.910;7.724;2024-02-15T05:07:37;101018.66;;;12.10;100.00
39265;BME280;42646;51.910;7.724;2024-02-15T05:10:07;101022.03;;;12.12;100.00
39265;BME280;42646;51.910;7.724;2024-02-15T05:12:37;101013.19;;;12.11;100.00
39265;BME280;42646;51.910;7.724;2024-02-15T05:15:05;101010.66;;;12.10;100.00
39265;BME280;42646;51.910;7.724;2024-02-15T05:17:38;101016.69;;;12.12;100.00
39265;BME280;42646;51.910;7.724;2024-02-15T05:20:08;101020.34;;;12.11;100.00
39265;BME280;42646;51.910;7.724;2024-02-15T05:22:41;101010.50;;;12.11;100.00
39265;BME280;42646;51.910;7.724;2024-02-15T05:25:16;101009.78;;;12.09;100.00
39265;BME280;42646;51.910;7.724;2024-02-15T05:27:50;101009.69;;;12.11;100.00
39265;BME280;42646;51.910;7.724;2024-02-15T05:30:17;101006.28;;;12.09;100.00
39265;BME280;42646;51.910;7.724;2024-02-15T05:32:45;101009.94;;;12.08;100.00
39265;BME280;42646;51.910;7.724;2024-02-15T05:35:14;100996.47;;;12.09;100.00
39265;BME280;42646;51.910;7.724;2024-02-15T05:37:45;101005.44;;;12.08;100.00
39265;BME280;42646;51.910;7.724;2024-02-15T05:40:13;101000.13;;;12.08;100.00
39265;BME280;42646;51.910;7.724;2024-02-15T05:42:42;101001.94;;;12.08;100.00
39265;BME280;42646;51.910;7.724;2024-02-15T05:45:30;100991.41;;;12.06;100.00
39265;BME280;42646;51.910;7.724;2024-02-15T05:48:00;100993.09;;;12.07;100.00
39265;BME280;42646;51.910;7.724;2024-02-15T05:50:28;100984.25;;;12.07;100.00
39265;BME280;42646;51.910;7.724;2024-02-15T05:52:58;100980.91;;;12.05;100.00
39265;BME280;42646;51.910;7.724;2024-02-15T05:55:28;100981.84;;;12.03;100.00
39265;BME280;42646;51.910;7.724;2024-02-15T05:57:55;100982.00;;;12.02;100.00
39265;BME280;42646;51.910;7.724;2024-02-15T06:00:23;100991.00;;;12.01;100.00
39265;BME280;42646;51.910;7.724;2024-02-15T06:02:51;101001.81;;;11.99;100.00
39265;BME280;42646;51.910;7.724;2024-02-15T06:05:19;101000.13;;;11.98;100.00
39265;BME280;42646;51.910;7.724;2024-02-15T06:07:47;100988.63;;;11.98;100.00
39265;BME280;42646;51.910;7.724;2024-02-15T06:10:17;100994.91;;;11.97;100.00
39265;BME280;42646;51.910;7.724;2024-02-15T06:12:44;100994.06;;;11.96;100.00
39265;BME280;42646;51.910;7.724;2024-02-15T06:15:14;100987.22;;;11.94;100.00
39265;BME280;42646;51.910;7.724;2024-02-15T06:17:43;100989.03;;;11.93;100.00
39265;BME280;42646;51.910;7.724;2024-02-15T06:20:12;100997.19;;;11.92;100.00
39265;BME280;42646;51.910;7.724;2024-02-15T06:22:43;100990.97;;;11.91;100.00
39265;BME280;42646;51.910;7.724;2024-02-15T06:25:11;100982.44;;;11.88;100.00
39265;BME280;42646;51.910;7.724;2024-02-15T06:27:41;100981.69;;;11.86;100.00
39265;BME280;42646;51.910;7.724;2024-02-15T06:30:10;100987.91;;;11.86;100.00
39265;BME280;42646;51.910;7.724;2024-02-15T06:32:55;100980.75;;;11.87;100.00
39265;BME280;42646;51.910;7.724;2024-02-15T06:35:41;100979.91;;;11.86;100.00
39265;BME280;42646;51.910;7.724;2024-02-15T06:38:26;100982.69;;;11.85;100.00
39265;BME280;42646;51.910;7.724;2024-02-15T06:41:12;100978.50;;;11.82;100.00
39265;BME280;42646;51.910;7.724;2024-02-15T06:43:41;100981.16;;;11.82;100.00
39265;BME280;42646;51.910;7.724;2024-02-15T06:46:09;100988.31;;;11.82;100.00
39265;BME280;42646;51.910;7.724;2024-02-15T06:48:37;100998.13;;;11.81;100.00
39265;BME280;42646;51.910;7.724;2024-02-15T06:51:07;100993.75;;;11.80;100.00
39265;BME280;42646;51.910;7.724;2024-02-15T06:53:39;100991.09;;;11.80;100.00
39265;BME280;42646;51.910;7.724;2024-02-15T06:56:08;100987.69;;;11.78;100.00
39265;BME280;42646;51.910;7.724;2024-02-15T06:58:36;100988.69;;;11.77;100.00
39265;BME280;42646;51.910;7.724;2024-02-15T07:01:05;100986.88;;;11.77;100.00
39265;BME280;42646;51.910;7.724;2024-02-15T07:03:34;100985.03;;;11.78;100.00
39265;BME280;42646;51.910;7.724;2024-02-15T07:06:02;100993.03;;;11.78;100.00
39265;BME280;42646;51.910;7.724;2024-02-15T07:08:31;100991.09;;;11.80;100.00
39265;BME280;42646;51.910;7.724;2024-02-15T07:10:59;100988.44;;;11.80;100.00
39265;BME280;42646;51.910;7.724;2024-02-15T07:13:28;100991.09;;;11.80;100.00
39265;BME280;42646;51.910;7.724;2024-02-15T07:15:56;100996.44;;;11.80;100.00
39265;BME280;42646;51.910;7.724;2024-02-15T07:18:25;100990.97;;;11.82;100.00
39265;BME280;42646;51.910;7.724;2024-02-15T07:20:55;100987.31;;;11.83;100.00
39265;BME280;42646;51.910;7.724;2024-02-15T07:23:26;100989.25;;;11.81;100.00
39265;BME280;42646;51.910;7.724;2024-02-15T07:25:53;100991.94;;;11.81;100.00
39265;BME280;42646;51.910;7.724;2024-02-15T07:28:21;100982.97;;;11.82;100.00
39265;BME280;42646;51.910;7.724;2024-02-15T07:30:51;100984.66;;;11.83;100.00
39265;BME280;42646;51.910;7.724;2024-02-15T07:33:21;100978.19;;;11.85;100.00
39265;BME280;42646;51.910;7.724;2024-02-15T07:35:51;100974.56;;;11.86;100.00
39265;BME280;42646;51.910;7.724;2024-02-15T07:38:20;100969.09;;;11.88;100.00
39265;BME280;42646;51.910;7.724;2024-02-15T07:40:49;100964.31;;;11.91;100.00
39265;BME280;42646;51.910;7.724;2024-02-15T07:43:17;100962.63;;;11.90;100.00
39265;BME280;42646;51.910;7.724;2024-02-15T07:45:44;100960.81;;;11.91;100.00
39265;BME280;42646;51.910;7.724;2024-02-15T07:48:15;100946.91;;;11.97;100.00
39265;BME280;42646;51.910;7.724;2024-02-15T07:50:43;100954.38;;;11.93;100.00
39265;BME280;42646;51.910;7.724;2024-02-15T07:53:13;100947.22;;;11.94;100.00
39265;BME280;42646;51.910;7.724;2024-02-15T07:55:40;100943.56;;;11.95;100.00
39265;BME280;42646;51.910;7.724;2024-02-15T07:58:08;100937.50;;;12.02;100.00
39265;BME280;42646;51.910;7.724;2024-02-15T08:00:36;100927.00;;;12.01;100.00
39265;BME280;42646;51.910;7.724;2024-02-15T08:03:04;100919.97;;;12.00;100.00
39265;BME280;42646;51.910;7.724;2024-02-15T08:05:32;100931.34;;;12.02;100.00
39265;BME280;42646;51.910;7.724;2024-02-15T08:08:00;100937.66;;;12.01;100.00
39265;BME280;42646;51.910;7.724;2024-02-15T08:10:30;100957.03;;;12.03;100.00
39265;BME280;42646;51.910;7.724;2024-02-15T08:12:57;100970.50;;;12.01;100.00
39265;BME280;42646;51.910;7.724;2024-02-15T08:15:25;100971.19;;;12.03;100.00
39265;BME280;42646;51.910;7.724;2024-02-15T08:17:55;100986.22;;;12.05;100.00
39265;BME280;42646;51.910;7.724;2024-02-15T08:20:23;100983.56;;;12.05;100.00
39265;BME280;42646;51.910;7.724;2024-02-15T08:22:51;100982.59;;;12.06;100.00
39265;BME280;42646;51.910;7.724;2024-02-15T08:25:18;100984.25;;;12.07;100.00
39265;BME280;42646;51.910;7.724;2024-02-15T08:27:48;100987.63;;;12.09;100.00
39265;BME280;42646;51.910;7.724;2024-02-15T08:30:17;100984.84;;;12.10;100.00
39265;BME280;42646;51.910;7.724;2024-02-15T08:32:50;100982.28;;;12.09;100.00
39265;BME280;42646;51.910;7.724;2024-02-15T08:35:21;100979.50;;;12.10;100.00
39265;BME280;42646;51.910;7.724;2024-02-15T08:37:49;100972.34;;;12.11;100.00
39265;BME280;42646;51.910;7.724;2024-02-15T08:40:18;100966.72;;;12.14;100.00
39265;BME280;42646;51.910;7.724;2024-02-15T08:42:52;100962.22;;;12.14;100.00
39265;BME280;42646;51.910;7.724;2024-02-15T08:45:20;100948.75;;;12.16;100.00
39265;BME280;42646;51.910;7.724;2024-02-15T08:47:49;100954.22;;;12.14;100.00
39265;BME280;42646;51.910;7.724;2024-02-15T08:50:19;100949.59;;;12.16;100.00
39265;BME280;42646;51.910;7.724;2024-02-15T08:52:50;100951.44;;;12.16;100.00
39265;BME280;42646;51.910;7.724;2024-02-15T08:55:17;100939.31;;;12.21;100.00
39265;BME280;42646;51.910;7.724;2024-02-15T08:57:47;100930.47;;;12.21;100.00
39265;BME280;42646;51.910;7.724;2024-02-15T09:00:16;100935.97;;;12.19;100.00
39265;BME280;42646;51.910;7.724;2024-02-15T09:02:44;100950.97;;;12.20;100.00
39265;BME280;42646;51.910;7.724;2024-02-15T09:05:13;100947.63;;;12.18;100.00
39265;BME280;42646;51.910;7.724;2024-02-15T09:07:42;100958.16;;;12.20;100.00
39265;BME280;42646;51.910;7.724;2024-02-15T09:10:10;100964.47;;;12.19;100.00
39265;BME280;42646;51.910;7.724;2024-02-15T09:12:39;100968.53;;;12.23;100.00
39265;BME280;42646;51.910;7.724;2024-02-15T09:15:08;100962.38;;;12.22;100.00
39265;BME280;42646;51.910;7.724;2024-02-15T09:17:37;100962.38;;;12.22;100.00
39265;BME280;42646;51.910;7.724;2024-02-15T09:20:07;100969.22;;;12.25;100.00
39265;BME280;42646;51.910;7.724;2024-02-15T09:22:35;100972.59;;;12.27;100.00
39265;BME280;42646;51.910;7.724;2024-02-15T09:25:03;100967.41;;;12.25;100.00
39265;BME280;42646;51.910;7.724;2024-02-15T09:27:31;100972.75;;;12.25;100.00
39265;BME280;42646;51.910;7.724;2024-02-15T09:29:59;100976.81;;;12.29;100.00
39265;BME280;42646;51.910;7.724;2024-02-15T09:32:27;100983.84;;;12.30;100.00
39265;BME280;42646;51.910;7.724;2024-02-15T09:34:56;100976.97;;;12.28;100.00
39265;BME280;42646;51.910;7.724;2024-02-15T09:37:23;100977.66;;;12.30;100.00
39265;BME280;42646;51.910;7.724;2024-02-15T09:39:52;100983.00;;;12.30;100.00
39265;BME280;42646;51.910;7.724;2024-02-15T09:42:21;100989.84;;;12.33;100.00
39265;BME280;42646;51.910;7.724;2024-02-15T09:44:50;100985.50;;;12.32;100.00
39265;BME280;42646;51.910;7.724;2024-02-15T09:47:18;100989.84;;;12.33;100.00
39265;BME280;42646;51.910;7.724;2024-02-15T09:49:46;100989.75;;;12.34;100.00
39265;BME280;42646;51.910;7.724;2024-02-15T09:52:16;100990.59;;;12.35;100.00
39265;BME280;42646;51.910;7.724;2024-02-15T09:54:44;100989.44;;;12.37;100.00
39265;BME280;42646;51.910;7.724;2024-02-15T09:57:13;100992.94;;;12.38;100.00
39265;BME280;42646;51.910;7.724;2024-02-15T09:59:40;100991.97;;;12.39;100.00
39265;BME280;42646;51.910;7.724;2024-02-15T10:02:11;100992.69;;;12.41;100.00
39265;BME280;42646;51.910;7.724;2024-02-15T10:04:40;100987.34;;;12.41;100.00
39265;BME280;42646;51.910;7.724;2024-02-15T10:07:08;100985.22;;;12.44;100.00
39265;BME280;42646;51.910;7.724;2024-02-15T10:09:37;100994.06;;;12.45;100.00
39265;BME280;42646;51.910;7.724;2024-02-15T10:12:09;100991.13;;;12.48;100.00
39265;BME280;42646;51.910;7.724;2024-02-15T10:14:36;100997.44;;;12.47;100.00
39265;BME280;42646;51.910;7.724;2024-02-15T10:17:06;101007.81;;;12.50;100.00
39265;BME280;42646;51.910;7.724;2024-02-15T10:19:36;101016.81;;;12.49;100.00
39265;BME280;42646;51.910;7.724;2024-02-15T10:22:06;101008.66;;;12.50;100.00
39265;BME280;42646;51.910;7.724;2024-02-15T10:24:35;101019.06;;;12.53;100.00
39265;BME280;42646;51.910;7.724;2024-02-15T10:27:05;101019.75;;;12.55;100.00
39265;BME280;42646;51.910;7.724;2024-02-15T10:29:34;101015.13;;;12.57;100.00
39265;BME280;42646;51.910;7.724;2024-02-15T10:32:03;101021.16;;;12.60;100.00
39265;BME280;42646;51.910;7.724;2024-02-15T10:34:43;101009.50;;;12.61;100.00
39265;BME280;42646;51.910;7.724;2024-02-15T10:37:12;101010.19;;;12.63;100.00
39265;BME280;42646;51.910;7.724;2024-02-15T10:39:40;101008.50;;;12.62;100.00
39265;BME280;42646;51.910;7.724;2024-02-15T10:42:09;101002.19;;;12.63;100.00
39265;BME280;42646;51.910;7.724;2024-02-15T10:44:38;100996.84;;;12.63;100.00
39265;BME280;42646;51.910;7.724;2024-02-15T10:47:07;101005.00;;;12.61;100.00
39265;BME280;42646;51.910;7.724;2024-02-15T10:49:35;101003.47;;;12.59;100.00
39265;BME280;42646;51.910;7.724;2024-02-15T10:52:04;100983.66;;;12.61;100.00
39265;BME280;42646;51.910;7.724;2024-02-15T10:54:41;100992.38;;;12.63;100.00
39265;BME280;42646;51.910;7.724;2024-02-15T10:57:11;100995.88;;;12.64;100.00
39265;BME280;42646;51.910;7.724;2024-02-15T10:59:50;100989.41;;;12.66;100.00
39265;BME280;42646;51.910;7.724;2024-02-15T11:02:27;100986.59;;;12.68;100.00
39265;BME280;42646;51.910;7.724;2024-02-15T11:05:01;100985.75;;;12.67;100.00
39265;BME280;42646;51.910;7.724;2024-02-15T11:07:31;100982.22;;;12.67;100.00
39265;BME280;42646;51.910;7.724;2024-02-15T11:09:59;100972.25;;;12.69;100.00
39265;BME280;42646;51.910;7.724;2024-02-15T11:12:29;100972.97;;;12.71;100.00
39265;BME280;42646;51.910;7.724;2024-02-15T11:14:58;100953.44;;;12.70;100.00
39265;BME280;42646;51.910;7.724;2024-02-15T11:17:48;100961.56;;;12.69;100.00
39265;BME280;42646;51.910;7.724;2024-02-15T11:20:45;100958.22;;;12.67;100.00
39265;BME280;42646;51.910;7.724;2024-02-15T11:23:25;100943.03;;;12.67;100.00
39265;BME280;42646;51.910;7.724;2024-02-15T11:26:03;100944.59;;;12.70;100.00
39265;BME280;42646;51.910;7.724;2024-02-15T11:28:43;100933.19;;;12.68;100.00
39265;BME280;42646;51.910;7.724;2024-02-15T11:31:53;100917.19;;;12.68;100.00
39265;BME280;42646;51.910;7.724;2024-02-15T11:34:43;100913.00;;;12.65;100.00
39265;BME280;42646;51.910;7.724;2024-02-15T11:40:21;100895.72;;;12.60;100.00
39265;BME280;42646;51.910;7.724;2024-02-15T11:42:52;100898.25;;;12.61;100.00
39265;BME280;42646;51.910;7.724;2024-02-15T11:45:22;100903.59;;;12.61;100.00
39265;BME280;42646;51.910;7.724;2024-02-15T11:47:50;100900.06;;;12.61;100.00
39265;BME280;42646;51.910;7.724;2024-02-15T11:50:20;100895.13;;;12.66;100.00
39265;BME280;42646;51.910;7.724;2024-02-15T11:52:48;100893.03;;;12.69;100.00
39265;BME280;42646;51.910;7.724;2024-02-15T11:55:20;100890.91;;;12.73;100.00
39265;BME280;42646;51.910;7.724;2024-02-15T11:57:55;100893.28;;;12.76;100.00
39265;BME280;42646;51.910;7.724;2024-02-15T12:00:31;100891.03;;;12.81;100.00
39265;BME280;42646;51.910;7.724;2024-02-15T12:03:17;100890.72;;;12.84;100.00
39265;BME280;42646;51.910;7.724;2024-02-15T12:06:03;100885.09;;;12.87;100.00
39265;BME280;42646;51.910;7.724;2024-02-15T12:08:50;100876.63;;;12.92;100.00
39265;BME280;42646;51.910;7.724;2024-02-15T12:11:35;100877.00;;;12.97;100.00
39265;BME280;42646;51.910;7.724;2024-02-15T12:14:21;100883.75;;;13.01;100.00
39265;BME280;42646;51.910;7.724;2024-02-15T12:17:09;100883.44;;;13.04;100.00
39265;BME280;42646;51.910;7.724;2024-02-15T12:19:56;100878.66;;;13.07;100.00
39265;BME280;42646;51.910;7.724;2024-02-15T12:22:26;100869.75;;;13.17;100.00
39265;BME280;42646;51.910;7.724;2024-02-15T12:24:58;100866.66;;;13.21;100.00
39265;BME280;42646;51.910;7.724;2024-02-15T12:27:26;100862.91;;;13.32;100.00
39265;BME280;42646;51.910;7.724;2024-02-15T12:29:55;100861.81;;;13.34;100.00
39265;BME280;42646;51.910;7.724;2024-02-15T12:32:26;100867.50;;;13.40;100.00
39265;BME280;42646;51.910;7.724;2024-02-15T12:35:09;100857.75;;;13.48;100.00
39265;BME280;42646;51.910;7.724;2024-02-15T12:37:39;100851.41;;;13.49;100.00
39265;BME280;42646;51.910;7.724;2024-02-15T12:40:12;100844.63;;;13.55;100.00
39265;BME280;42646;51.910;7.724;2024-02-15T12:42:43;100838.28;;;13.56;100.00
39265;BME280;42646;51.910;7.724;2024-02-15T12:45:17;100827.81;;;13.62;100.00
39265;BME280;42646;51.910;7.724;2024-02-15T12:47:50;100826.34;;;13.68;100.00
39265;BME280;42646;51.910;7.724;2024-02-15T12:50:19;100825.22;;;13.71;100.00
39265;BME280;42646;51.910;7.724;2024-02-15T12:52:48;100830.25;;;13.74;100.00
39265;BME280;42646;51.910;7.724;2024-02-15T12:55:17;100832.91;;;13.74;100.00
39265;BME280;42646;51.910;7.724;2024-02-15T12:57:49;100829.94;;;13.77;100.00
39265;BME280;42646;51.910;7.724;2024-02-15T13:00:19;100829.16;;;13.84;100.00